createdAt,value
2022-08-12T00:00:08.944Z,98451.25
2022-08-12T00:02:54.971Z,98451.84
2022-08-12T00:06:04.096Z,98442.47
2022-08-12T00:08:50.618Z,98443.41
2022-08-12T00:11:35.966Z,98444.47
2022-08-12T00:14:21.100Z,98437.75
2022-08-12T00:17:06.960Z,98434.34
2022-08-12T00:19:52.238Z,98437.81
2022-08-12T00:22:38.727Z,98432.81
2022-08-12T00:26:05.465Z,98436.00
2022-08-12T00:28:30.865Z,98432.56
2022-08-12T00:31:16.248Z,98432.69
2022-08-12T00:34:01.554Z,98438.34
2022-08-12T00:36:48.883Z,98436.78
2022-08-12T00:39:35.917Z,98426.31
2022-08-12T00:42:12.386Z,98425.06
2022-08-12T00:44:42.305Z,98425.25
2022-08-12T00:47:24.910Z,98428.25
2022-08-12T00:49:55.393Z,98421.25
2022-08-12T00:52:23.460Z,98425.06
2022-08-12T00:54:53.698Z,98423.31
2022-08-12T00:57:23.047Z,98420.03
2022-08-12T00:59:49.584Z,98425.25
2022-08-12T01:02:31.122Z,98415.78
2022-08-12T01:05:19.104Z,98419.97
2022-08-12T01:08:05.926Z,98415.00
2022-08-12T01:10:59.563Z,98419.31
2022-08-12T01:13:27.454Z,98414.03
2022-08-12T01:15:59.171Z,98415.66
2022-08-12T01:18:28.906Z,98420.53
2022-08-12T01:21:17.692Z,98417.81
2022-08-12T01:24:29.745Z,98418.56
2022-08-12T01:26:59.494Z,98420.13
2022-08-12T01:29:35.070Z,98418.81
2022-08-12T01:32:08.635Z,98420.28
2022-08-12T01:34:38.548Z,98423.63
2022-08-12T01:37:07.892Z,98418.63
2022-08-12T01:40:33.285Z,98426.09
2022-08-12T01:42:34.127Z,98413.94
2022-08-12T01:45:02.438Z,98417.94
2022-08-12T01:47:56.387Z,98417.44
2022-08-12T01:50:31.868Z,98415.69
2022-08-12T01:53:13.062Z,98412.31
2022-08-12T01:55:43.446Z,98417.22
2022-08-12T01:58:51.445Z,98415.50
2022-08-12T02:01:23.584Z,98416.66
2022-08-12T02:04:25.357Z,98420.59
2022-08-12T02:07:31.026Z,98419.00
2022-08-12T02:10:51.214Z,98427.34
2022-08-12T02:13:41.702Z,98423.13
2022-08-12T02:16:31.885Z,98416.69
2022-08-12T02:19:23.162Z,98413.78
2022-08-12T02:22:07.762Z,98414.28
2022-08-12T02:24:38.300Z,98411.69
2022-08-12T02:27:08.367Z,98411.28
2022-08-12T02:29:36.086Z,98418.53
2022-08-12T02:32:03.896Z,98410.19
2022-08-12T02:34:31.394Z,98413.72
2022-08-12T02:37:03.605Z,98412.59
2022-08-12T02:39:34.069Z,98415.66
2022-08-12T02:42:03.979Z,98417.91
2022-08-12T02:44:37.479Z,98418.84
2022-08-12T02:47:06.490Z,98418.75
2022-08-12T02:49:39.922Z,98417.94
2022-08-12T02:52:08.057Z,98419.19
2022-08-12T02:54:35.595Z,98427.78
2022-08-12T02:57:02.392Z,98416.88
2022-08-12T02:59:29.335Z,98414.06
2022-08-12T03:02:05.937Z,98407.41
2022-08-12T03:04:46.458Z,98409.53
2022-08-12T03:07:55.919Z,98410.56
2022-08-12T03:10:17.705Z,98409.56
2022-08-12T03:12:49.421Z,98403.50
2022-08-12T03:15:22.552Z,98411.78
2022-08-12T03:18:24.833Z,98410.28
2022-08-12T03:20:54.499Z,98401.25
2022-08-12T03:23:30.259Z,98404.03
2022-08-12T03:26:01.643Z,98404.13
2022-08-12T03:28:49.167Z,98409.53
2022-08-12T03:31:17.101Z,98407.94
2022-08-12T03:34:01.856Z,98406.91
2022-08-12T03:36:33.594Z,98405.06
2022-08-12T03:39:16.932Z,98411.13
2022-08-12T03:41:52.564Z,98420.94
2022-08-12T03:44:56.407Z,98415.03
2022-08-12T03:47:43.551Z,98419.00
2022-08-12T03:50:28.821Z,98418.22
2022-08-12T03:53:14.275Z,98420.09
2022-08-12T03:55:59.622Z,98425.25
2022-08-12T03:58:44.925Z,98416.78
2022-08-12T04:01:13.142Z,98419.28
2022-08-12T04:03:55.079Z,98424.50
2022-08-12T04:06:34.355Z,98426.59
2022-08-12T04:09:15.836Z,98432.53
2022-08-12T04:12:04.532Z,98428.16
2022-08-12T04:14:31.963Z,98431.63
2022-08-12T04:16:58.529Z,98429.25
2022-08-12T04:19:26.408Z,98432.41
2022-08-12T04:22:01.638Z,98430.88
2022-08-12T04:24:38.015Z,98424.84
2022-08-12T04:27:09.614Z,98429.66
2022-08-12T04:30:20.951Z,98427.44
2022-08-12T04:32:25.747Z,98429.22
2022-08-12T04:34:53.169Z,98435.47
2022-08-12T04:37:20.217Z,98439.63
2022-08-12T04:39:48.272Z,98444.81
2022-08-12T04:42:15.186Z,98439.88
2022-08-12T04:44:42.525Z,98441.50
2022-08-12T04:47:13.231Z,98441.59
2022-08-12T04:49:40.948Z,98450.63
2022-08-12T04:52:07.833Z,98447.31
2022-08-12T04:54:34.517Z,98445.75
2022-08-12T04:57:03.633Z,98445.56
2022-08-12T04:59:48.685Z,98442.03
2022-08-12T05:02:22.669Z,98448.91
2022-08-12T05:05:00.479Z,98448.59
2022-08-12T05:07:27.805Z,98455.63
2022-08-12T05:09:59.068Z,98449.06
2022-08-12T05:12:37.893Z,98456.69
2022-08-12T05:15:19.748Z,98455.44
2022-08-12T05:17:53.261Z,98458.66
2022-08-12T05:20:23.009Z,98453.97
2022-08-12T05:22:52.995Z,98458.25
2022-08-12T05:25:24.326Z,98458.38
2022-08-12T05:27:55.432Z,98464.25
2022-08-12T05:30:30.979Z,98464.88
2022-08-12T05:32:59.797Z,98465.91
2022-08-12T05:35:27.426Z,98468.72
2022-08-12T05:38:13.990Z,98470.94
2022-08-12T05:40:42.006Z,98473.31
2022-08-12T05:43:08.996Z,98478.78
2022-08-12T05:45:35.685Z,98474.56
2022-08-12T05:48:02.783Z,98479.19
2022-08-12T05:50:29.563Z,98476.38
2022-08-12T05:52:56.196Z,98479.84
2022-08-12T05:55:25.863Z,98475.09
2022-08-12T05:57:55.811Z,98474.78
2022-08-12T06:00:26.461Z,98474.34
2022-08-12T06:03:02.746Z,98482.72
2022-08-12T06:05:34.405Z,98475.56
2022-08-12T06:08:19.261Z,98474.59
2022-08-12T06:10:46.205Z,98478.09
2022-08-12T06:13:15.191Z,98485.97
2022-08-12T06:15:55.563Z,98483.19
2022-08-12T06:18:25.376Z,98479.50
2022-08-12T06:20:59.200Z,98479.28
2022-08-12T06:23:29.611Z,98482.53
2022-08-12T06:25:56.431Z,98476.53
2022-08-12T06:28:23.154Z,98477.97
2022-08-12T06:31:14.848Z,98473.28
2022-08-12T06:33:59.502Z,98471.91
2022-08-12T06:36:29.306Z,98472.47
2022-08-12T06:38:57.380Z,98464.09
2022-08-12T06:42:02.766Z,98461.63
2022-08-12T06:44:29.237Z,98454.97
2022-08-12T06:46:56.800Z,98456.91
2022-08-12T06:49:25.407Z,98465.84
2022-08-12T06:51:56.209Z,98460.22
2022-08-12T06:54:31.408Z,98467.28
2022-08-12T06:57:04.611Z,98472.06
2022-08-12T06:59:41.085Z,98468.84
2022-08-12T07:02:08.668Z,98464.66
2022-08-12T07:04:39.171Z,98466.09
2022-08-12T07:07:08.796Z,98473.84
2022-08-12T07:10:01.302Z,98472.56
2022-08-12T07:12:22.379Z,98469.97
2022-08-12T07:14:51.624Z,98470.75
2022-08-12T07:17:18.812Z,98479.53
2022-08-12T07:19:46.877Z,98478.75
2022-08-12T07:22:16.292Z,98486.00
2022-08-12T07:24:43.055Z,98482.94
2022-08-12T07:27:09.844Z,98487.50
2022-08-12T07:29:58.052Z,98483.59
2022-08-12T07:32:25.852Z,98483.25
2022-08-12T07:34:56.365Z,98485.56
2022-08-12T07:37:23.618Z,98476.75
2022-08-12T07:39:59.122Z,98483.16
2022-08-12T07:42:28.800Z,98482.44
2022-08-12T07:44:56.492Z,98482.59
2022-08-12T07:47:24.164Z,98480.19
2022-08-12T07:50:04.879Z,98487.00
2022-08-12T07:52:42.689Z,98486.13
2022-08-12T07:55:10.280Z,98481.75
2022-08-12T07:57:49.534Z,98484.28
2022-08-12T08:00:16.750Z,98481.09
2022-08-12T08:02:45.133Z,98478.94
2022-08-12T08:05:12.594Z,98476.50
2022-08-12T08:07:43.051Z,98480.28
2022-08-12T08:10:12.113Z,98482.19
2022-08-12T08:12:55.837Z,98485.41
2022-08-12T08:16:00.662Z,98482.44
2022-08-12T08:18:20.508Z,98482.59
2022-08-12T08:20:56.652Z,98478.34
2022-08-12T08:23:46.477Z,98480.19
2022-08-12T08:26:15.687Z,98479.31
2022-08-12T08:28:44.923Z,98478.47
2022-08-12T08:31:14.442Z,98470.78
2022-08-12T08:34:05.328Z,98479.63
2022-08-12T08:36:31.270Z,98477.53
2022-08-12T08:38:58.891Z,98481.25
2022-08-12T08:42:17.517Z,98480.94
2022-08-12T08:44:39.514Z,98471.25
2022-08-12T08:47:07.646Z,98486.16
2022-08-12T08:49:37.941Z,98477.63
2022-08-12T08:52:06.473Z,98471.88
2022-08-12T08:54:33.650Z,98473.19
2022-08-12T08:57:01.927Z,98471.81
2022-08-12T08:59:29.268Z,98470.31
2022-08-12T09:01:56.139Z,98468.03
2022-08-12T09:05:14.553Z,98469.94
2022-08-12T09:10:02.377Z,98465.38
2022-08-12T09:12:54.770Z,98464.81
2022-08-12T09:15:35.559Z,98469.63
2022-08-12T09:18:09.080Z,98463.00
2022-08-12T09:20:38.371Z,98457.56
2022-08-12T09:23:56.743Z,98462.88
2022-08-12T09:25:55.033Z,98457.56
2022-08-12T09:28:31.249Z,98452.38
2022-08-12T09:30:59.355Z,98450.88
2022-08-12T09:34:25.615Z,98452.50
2022-08-12T09:36:16.283Z,98464.47
2022-08-12T09:38:59.041Z,98465.44
2022-08-12T09:42:09.002Z,98453.19
2022-08-12T09:44:38.420Z,98462.47
2022-08-12T09:47:10.625Z,98448.56
2022-08-12T09:49:42.354Z,98442.72
2022-08-12T09:52:11.683Z,98448.50
2022-08-12T09:54:38.265Z,98449.34
2022-08-12T09:58:44.533Z,98438.94
2022-08-12T10:00:12.845Z,98436.69
2022-08-12T10:03:32.582Z,98438.00
2022-08-12T10:06:19.392Z,98437.41
2022-08-12T10:08:49.668Z,98430.44
2022-08-12T10:12:09.956Z,98424.78
2022-08-12T10:14:34.399Z,98419.56
2022-08-12T10:17:02.111Z,98415.16
2022-08-12T10:19:36.758Z,98423.75
2022-08-12T10:22:16.486Z,98423.16
2022-08-12T10:25:16.406Z,98420.47
2022-08-12T10:28:08.395Z,98415.38
2022-08-12T10:30:43.906Z,98406.75
2022-08-12T10:33:17.994Z,98410.38
2022-08-12T10:35:45.974Z,98401.47
2022-08-12T10:38:37.756Z,98411.34
2022-08-12T10:41:26.250Z,98404.47
2022-08-12T10:44:17.950Z,98389.34
2022-08-12T10:46:50.101Z,98389.56
2022-08-12T10:50:02.982Z,98373.81
2022-08-12T10:52:47.242Z,98382.56
2022-08-12T10:54:56.263Z,98377.34
2022-08-12T10:57:50.493Z,98378.41
2022-08-12T11:00:30.582Z,98386.22
2022-08-12T11:04:18.338Z,98376.59
2022-08-12T11:07:07.182Z,98362.50
2022-08-12T11:08:42.553Z,98358.94
2022-08-12T11:11:17.803Z,98366.53
2022-08-12T11:14:05.586Z,98363.09
2022-08-12T11:16:33.408Z,98355.94
2022-08-12T11:19:02.942Z,98352.81
2022-08-12T11:21:57.003Z,98361.94
2022-08-12T11:24:32.109Z,98357.63
2022-08-12T11:27:07.935Z,98357.19
2022-08-12T11:30:05.529Z,98353.28
2022-08-12T11:32:25.004Z,98341.25
2022-08-12T11:34:54.557Z,98346.84
2022-08-12T11:37:26.163Z,98351.97
2022-08-12T11:43:01.858Z,98343.69
2022-08-12T11:45:46.976Z,98353.88
2022-08-12T11:48:15.449Z,98338.53
2022-08-12T11:50:45.557Z,98336.34
2022-08-12T11:53:57.708Z,98328.47
2022-08-12T11:55:58.890Z,98324.84
2022-08-12T11:59:03.006Z,98325.59
2022-08-12T12:01:58.096Z,98318.84
2022-08-12T12:03:59.633Z,98322.28
2022-08-12T12:06:26.275Z,98305.97
2022-08-12T12:08:53.686Z,98312.19
2022-08-12T12:11:22.532Z,98307.22
2022-08-12T12:14:08.271Z,98311.38
2022-08-12T12:16:40.108Z,98307.16
2022-08-12T12:19:15.247Z,98302.94
2022-08-12T12:21:48.763Z,98304.22
2022-08-12T12:24:21.099Z,98308.06
2022-08-12T12:27:00.507Z,98312.44
2022-08-12T12:30:13.772Z,98303.53
2022-08-12T12:32:19.523Z,98302.19
2022-08-12T12:35:13.958Z,98309.59
2022-08-12T12:38:03.425Z,98298.84
2022-08-12T12:40:34.411Z,98285.31
2022-08-12T12:43:05.255Z,98291.84
2022-08-12T12:45:35.671Z,98296.06
2022-08-12T12:48:05.626Z,98284.97
2022-08-12T12:50:45.314Z,98281.41
2022-08-12T12:54:06.439Z,98282.72
2022-08-12T12:56:34.027Z,98274.34
2022-08-12T12:59:01.055Z,98266.75
2022-08-12T13:01:32.890Z,98271.88
2022-08-12T13:04:02.970Z,98270.44
2022-08-12T13:06:30.846Z,98263.91
2022-08-12T13:09:02.570Z,98266.53
2022-08-12T13:11:41.155Z,98256.88
2022-08-12T13:14:12.859Z,98257.88
2022-08-12T13:16:55.249Z,98255.88
2022-08-12T13:19:36.476Z,98257.63
2022-08-12T13:22:19.221Z,98256.50
2022-08-12T13:24:55.947Z,98257.28
2022-08-12T13:27:35.036Z,98254.25
2022-08-12T13:30:11.071Z,98253.00
2022-08-12T13:32:48.036Z,98256.53
2022-08-12T13:36:02.671Z,98245.25
2022-08-12T13:38:26.875Z,98251.84
2022-08-12T13:41:02.243Z,98242.69
2022-08-12T13:43:41.428Z,98244.53
2022-08-12T13:46:11.930Z,98248.91
2022-08-12T13:48:39.980Z,98249.25
2022-08-12T13:51:12.049Z,98238.81
2022-08-12T13:53:57.764Z,98236.97
2022-08-12T13:56:34.863Z,98248.38
2022-08-12T13:59:08.479Z,98240.75
2022-08-12T14:01:40.333Z,98245.25
2022-08-12T14:04:11.531Z,98237.56
2022-08-12T14:06:40.903Z,98226.91
2022-08-12T14:09:17.365Z,98237.09
2022-08-12T14:11:51.283Z,98227.75
2022-08-12T14:14:31.770Z,98230.34
2022-08-12T14:17:09.845Z,98239.00
2022-08-12T14:19:48.764Z,98221.75
2022-08-12T14:22:20.180Z,98225.66
2022-08-12T14:24:46.793Z,98224.25
2022-08-12T14:27:14.023Z,98236.16
2022-08-12T14:30:15.039Z,98230.72
2022-08-12T14:32:44.159Z,98222.50
2022-08-12T14:35:12.022Z,98219.78
2022-08-12T14:37:56.816Z,98219.34
2022-08-12T14:40:27.854Z,98208.09
2022-08-12T14:42:56.910Z,98222.47
2022-08-12T14:45:37.096Z,98215.97
2022-08-12T14:48:12.730Z,98218.69
2022-08-12T14:51:02.718Z,98221.22
2022-08-12T14:59:24.165Z,98212.56
2022-08-12T15:01:52.124Z,98208.47
2022-08-12T15:04:29.106Z,98204.28
2022-08-12T15:06:56.229Z,98206.41
2022-08-12T15:09:28.732Z,98205.22
2022-08-12T15:12:03.259Z,98199.38
2022-08-12T15:14:30.640Z,98209.50
2022-08-12T15:17:00.191Z,98204.22
2022-08-12T15:20:28.562Z,98205.66
2022-08-12T15:22:37.684Z,98199.00
2022-08-12T15:25:07.637Z,98202.03
2022-08-12T15:28:04.570Z,98194.69
2022-08-12T15:30:30.643Z,98195.34
2022-08-12T15:32:57.873Z,98190.06
2022-08-12T15:35:31.180Z,98191.81
2022-08-12T15:38:08.107Z,98193.72
2022-08-12T15:40:46.836Z,98194.78
2022-08-12T15:44:17.055Z,98193.31
2022-08-12T15:46:16.003Z,98191.78
2022-08-12T15:48:46.852Z,98194.13
2022-08-12T15:51:58.919Z,98192.97
2022-08-12T15:54:31.040Z,98189.00
2022-08-12T15:57:08.001Z,98189.13
2022-08-12T16:00:00.590Z,98189.09
2022-08-12T16:02:26.800Z,98178.91
2022-08-12T16:04:54.500Z,98174.81
2022-08-12T16:07:26.027Z,98181.25
2022-08-12T16:10:07.074Z,98186.44
2022-08-12T16:12:43.336Z,98184.88
2022-08-12T16:15:22.231Z,98184.88
2022-08-12T16:18:18.915Z,98175.97
2022-08-12T16:20:36.870Z,98168.41
2022-08-12T16:23:35.812Z,98167.78
2022-08-12T16:26:03.296Z,98172.38
2022-08-12T16:28:32.497Z,98166.72
2022-08-12T16:31:00.015Z,98166.06
2022-08-12T16:33:59.696Z,98173.78
2022-08-12T16:36:25.562Z,98165.91
2022-08-12T16:38:52.677Z,98164.44
2022-08-12T16:41:19.322Z,98162.38
2022-08-12T16:43:46.790Z,98161.91
2022-08-12T16:46:32.503Z,98161.72
2022-08-12T16:49:08.564Z,98157.13
2022-08-12T16:51:46.048Z,98155.25
2022-08-12T16:54:16.177Z,98150.53
2022-08-12T16:56:54.654Z,98153.47
2022-08-12T16:59:26.041Z,98155.47
2022-08-12T17:02:02.818Z,98148.41
2022-08-12T17:04:30.238Z,98157.47
2022-08-12T17:06:56.883Z,98148.00
2022-08-12T17:09:26.227Z,98149.06
2022-08-12T17:12:02.871Z,98155.88
2022-08-12T17:14:38.427Z,98150.47
2022-08-12T17:17:26.045Z,98149.38
2022-08-12T17:20:28.960Z,98151.22
2022-08-12T17:22:52.768Z,98148.19
2022-08-12T17:25:21.415Z,98140.03
2022-08-12T17:27:57.188Z,98149.28
2022-08-12T17:30:24.703Z,98155.03
2022-08-12T17:32:53.302Z,98150.56
2022-08-12T17:35:36.781Z,98150.06
2022-08-12T17:38:05.842Z,98154.78
2022-08-12T17:40:35.826Z,98152.19
2022-08-12T17:43:57.526Z,98149.69
2022-08-12T17:45:59.027Z,98150.19
2022-08-12T17:48:34.888Z,98154.09
2022-08-12T17:51:07.101Z,98156.53
2022-08-12T17:54:06.049Z,98161.38
2022-08-12T17:56:24.091Z,98165.03
2022-08-12T17:58:58.659Z,98155.44
2022-08-12T18:01:28.814Z,98155.13
2022-08-12T18:04:20.595Z,98163.81
2022-08-12T18:06:49.195Z,98157.28
2022-08-12T18:09:18.120Z,98171.25
2022-08-12T18:12:08.324Z,98165.16
2022-08-12T18:14:38.318Z,98168.69
2022-08-12T18:17:09.619Z,98168.34
2022-08-12T18:20:05.361Z,98171.25
2022-08-12T18:22:30.321Z,98178.56
2022-08-12T18:25:02.181Z,98178.22
2022-08-12T18:27:44.342Z,98185.13
2022-08-12T18:30:20.856Z,98178.25
2022-08-12T18:33:03.099Z,98181.19
2022-08-12T18:35:47.201Z,98186.34
2022-08-12T18:38:21.978Z,98188.03
2022-08-12T18:41:10.015Z,98185.56
2022-08-12T18:43:57.582Z,98191.28
2022-08-12T18:46:35.021Z,98190.34
2022-08-12T18:49:17.851Z,98198.16
2022-08-12T18:52:02.459Z,98195.25
2022-08-12T18:54:34.294Z,98203.34
2022-08-12T18:57:16.604Z,98195.75
2022-08-12T19:00:02.096Z,98199.97
2022-08-12T19:02:36.094Z,98202.34
2022-08-12T19:05:10.065Z,98197.97
2022-08-12T19:07:50.070Z,98197.25
2022-08-12T19:10:28.890Z,98200.75
2022-08-12T19:13:23.094Z,98191.28
2022-08-12T19:15:57.343Z,98208.41
2022-08-12T19:18:30.237Z,98205.03
2022-08-12T19:21:06.510Z,98204.28
2022-08-12T19:23:35.524Z,98198.25
2022-08-12T19:26:05.306Z,98206.63
2022-08-12T19:28:38.615Z,98204.00
2022-08-12T19:31:45.201Z,98207.03
2022-08-12T19:37:20.465Z,98210.03
2022-08-12T19:40:09.976Z,98218.78
2022-08-12T19:42:44.942Z,98211.19
2022-08-12T19:45:15.936Z,98210.78
2022-08-12T19:47:44.717Z,98214.56
2022-08-12T19:50:11.955Z,98208.44
2022-08-12T19:52:40.889Z,98217.13
2022-08-12T19:55:11.598Z,98209.56
2022-08-12T19:58:01.791Z,98212.63
2022-08-12T20:00:31.917Z,98215.56
2022-08-12T20:03:03.216Z,98209.41
2022-08-12T20:06:06.584Z,98214.41
2022-08-12T20:08:29.346Z,98214.41
2022-08-12T20:12:14.233Z,98214.03
2022-08-12T20:14:00.528Z,98222.28
2022-08-12T20:16:50.647Z,98220.06
2022-08-12T20:19:14.525Z,98213.09
2022-08-12T20:21:43.657Z,98214.28
2022-08-12T20:24:12.874Z,98217.31
2022-08-12T20:26:42.415Z,98221.38
2022-08-12T20:29:11.871Z,98221.06
2022-08-12T20:31:39.871Z,98219.63
2022-08-12T20:34:06.851Z,98222.28
2022-08-12T20:36:40.900Z,98223.69
2022-08-12T20:39:34.418Z,98215.34
2022-08-12T20:42:02.344Z,98211.63
2022-08-12T20:44:33.304Z,98220.63
2022-08-12T20:47:17.918Z,98231.69
2022-08-12T20:49:46.123Z,98229.38
2022-08-12T20:52:18.327Z,98222.94
2022-08-12T20:54:52.778Z,98222.47
2022-08-12T20:57:21.229Z,98222.84
2022-08-12T20:59:52.759Z,98230.81
2022-08-12T21:02:24.421Z,98235.69
2022-08-12T21:05:19.821Z,98233.75
2022-08-12T21:07:52.252Z,98234.91
2022-08-12T21:10:20.925Z,98229.53
2022-08-12T21:12:48.713Z,98238.22
2022-08-12T21:15:23.515Z,98238.56
2022-08-12T21:18:12.002Z,98231.31
2022-08-12T21:20:52.845Z,98235.81
2022-08-12T21:23:23.565Z,98241.81
2022-08-12T21:25:56.170Z,98244.81
2022-08-12T21:28:27.578Z,98245.47
2022-08-12T21:32:34.374Z,98248.19
2022-08-12T21:34:06.204Z,98237.16
2022-08-12T21:36:35.242Z,98243.06
2022-08-12T21:39:21.471Z,98244.16
2022-08-12T21:41:51.439Z,98252.84
2022-08-12T21:44:24.323Z,98250.22
2022-08-12T21:47:12.151Z,98243.03
2022-08-12T21:50:03.195Z,98251.38
2022-08-12T21:52:40.906Z,98253.13
2022-08-12T21:55:17.222Z,98250.34
2022-08-12T21:57:50.463Z,98252.69
2022-08-12T22:00:19.056Z,98247.50
2022-08-12T22:03:04.188Z,98254.28
2022-08-12T22:05:49.434Z,98249.25
2022-08-12T22:08:17.171Z,98251.44
2022-08-12T22:10:52.784Z,98249.28
2022-08-12T22:14:08.513Z,98265.56
2022-08-12T22:16:10.952Z,98257.28
2022-08-12T22:18:40.689Z,98260.34
2022-08-12T22:21:09.126Z,98263.97
2022-08-12T22:23:52.347Z,98265.34
2022-08-12T22:26:29.194Z,98262.69
2022-08-12T22:29:23.949Z,98261.75
2022-08-12T22:31:56.737Z,98270.59
2022-08-12T22:34:33.392Z,98267.03
2022-08-12T22:37:00.545Z,98266.16
2022-08-12T22:39:27.216Z,98260.91
2022-08-12T22:42:12.140Z,98272.09
2022-08-12T22:44:57.603Z,98265.69
2022-08-12T22:47:53.503Z,98260.66
2022-08-12T22:50:27.511Z,98266.63
2022-08-12T22:53:15.552Z,98260.53
2022-08-12T22:55:59.618Z,98254.16
2022-08-12T22:58:34.147Z,98261.34
2022-08-12T23:01:01.872Z,98257.00
2022-08-12T23:03:49.086Z,98258.06
2022-08-12T23:06:23.980Z,98252.72
2022-08-12T23:08:54.763Z,98249.06
2022-08-12T23:11:23.551Z,98245.53
2022-08-12T23:13:57.043Z,98250.56
2022-08-12T23:16:33.509Z,98250.66
2022-08-12T23:19:10.991Z,98247.56
2022-08-12T23:22:06.167Z,98251.50
2022-08-12T23:24:55.452Z,98254.72
2022-08-12T23:27:52.084Z,98261.53
2022-08-12T23:30:32.230Z,98258.06
2022-08-12T23:33:19.897Z,98256.19
2022-08-12T23:36:02.432Z,98257.09
2022-08-12T23:38:32.545Z,98259.13
2022-08-12T23:41:04.364Z,98256.72
2022-08-12T23:43:40.022Z,98259.44
2022-08-12T23:46:09.020Z,98267.25
2022-08-12T23:48:37.605Z,98266.47
2022-08-12T23:51:23.113Z,98263.28
2022-08-12T23:54:03.049Z,98262.97
2022-08-12T23:56:33.656Z,98262.75
2022-08-12T23:59:05.967Z,98264.50
